Time;durP1;ratioP1;P1;durP2;ratioP2;P2;SDS_P1;SDS_P2;PMS_P1;PMS_P2;Temp;Humidity;BMP_temperature;BMP_pressure;BME280_temperature;BME280_humidity;BME280_pressure;Samples;Min_cycle;Max_cycle;Signal;HPM_P1;HPM_P2
2021/01/12 00:00:23;;;;;;;0.57;0.57;;;-2.10;99.90;;;;;;6210354;23;20017;-91
2021/01/12 00:02:51;;;;;;;1.30;1.27;;;-2.30;99.90;;;;;;6210136;23;20009;-92
2021/01/12 00:05:17;;;;;;;1.45;1.00;;;-2.30;99.90;;;;;;6183718;23;20071;-92
2021/01/12 00:07:43;;;;;;;0.30;0.30;;;-2.30;99.90;;;;;;6210624;23;20024;-91
2021/01/12 00:10:09;;;;;;;0.75;0.75;;;-2.30;99.90;;;;;;6209750;23;20009;-91
2021/01/12 00:12:35;;;;;;;2.92;2.25;;;-2.20;99.90;;;;;;6184033;23;20028;-92
2021/01/12 00:15:03;;;;;;;2.28;1.50;;;-2.10;99.90;;;;;;6209418;23;20621;-91
2021/01/12 00:17:28;;;;;;;0.95;0.95;;;-2.10;99.90;;;;;;6183314;23;20032;-90
2021/01/12 00:19:54;;;;;;;0.40;0.40;;;-2.10;99.90;;;;;;6182689;23;20331;-90
2021/01/12 00:22:20;;;;;;;5.07;2.65;;;-2.10;99.90;;;;;;6210464;23;20331;-91
2021/01/12 00:24:47;;;;;;;1.00;0.95;;;-2.00;99.90;;;;;;6210630;23;20423;-91
2021/01/12 00:27:14;;;;;;;1.00;1.00;;;-2.00;99.90;;;;;;6212183;23;20000;-94
2021/01/12 00:29:40;;;;;;;;;;;-2.10;99.90;;;;;;6187201;23;20004;-94
2021/01/12 00:32:07;;;;;;;0.47;0.47;;;-2.10;99.90;;;;;;6216502;23;19910;-95
2021/01/12 00:34:33;;;;;;;0.82;0.82;;;-2.20;99.90;;;;;;6214897;23;20028;-94
2021/01/12 00:37:00;;;;;;;0.30;0.30;;;-2.10;99.90;;;;;;6213356;23;20097;-94
2021/01/12 00:39:26;;;;;;;0.40;0.40;;;-2.00;99.90;;;;;;6186461;23;20012;-93
2021/01/12 00:41:54;;;;;;;10.32;2.38;;;-2.10;99.90;;;;;;6213000;23;20004;-93
2021/01/12 00:44:21;;;;;;;0.60;0.60;;;-2.20;99.90;;;;;;6186204;23;20007;-93
2021/01/12 00:46:47;;;;;;;0.30;0.30;;;-2.10;99.90;;;;;;6186553;23;20000;-93
2021/01/12 00:49:15;;;;;;;0.63;0.63;;;-2.00;99.90;;;;;;6183563;23;20071;-92
2021/01/12 00:51:41;;;;;;;1.02;1.02;;;-2.10;99.90;;;;;;6184887;23;20015;-93
2021/01/12 00:54:16;;;;;;;0.75;0.75;;;-2.20;99.90;;;;;;6184384;23;20005;-92
2021/01/12 00:56:42;;;;;;;0.95;0.95;;;-2.10;99.90;;;;;;6184568;23;20083;-92
2021/01/12 00:59:08;;;;;;;1.92;1.65;;;-2.00;99.90;;;;;;6210286;23;20003;-92
2021/01/12 01:01:35;;;;;;;0.30;0.30;;;-2.00;99.90;;;;;;6183971;23;20016;-92
2021/01/12 01:04:01;;;;;;;4.22;1.55;;;-2.00;99.90;;;;;;6183797;23;20017;-91
2021/01/12 01:06:27;;;;;;;2.15;2.05;;;-2.00;99.90;;;;;;6210397;23;20004;-92
2021/01/12 01:08:53;;;;;;;0.30;0.30;;;-2.00;99.90;;;;;;6183679;23;20088;-92
2021/01/12 01:11:19;;;;;;;0.60;0.60;;;-1.90;99.90;;;;;;6183366;23;20008;-92
2021/01/12 01:13:46;;;;;;;1.17;1.08;;;-2.00;99.90;;;;;;6210437;23;20036;-91
2021/01/12 01:16:12;;;;;;;0.82;0.82;;;-2.00;99.90;;;;;;6209506;23;20091;-91
2021/01/12 01:18:38;;;;;;;0.45;0.45;;;-1.90;99.90;;;;;;6210400;23;20732;-94
2021/01/12 01:21:04;;;;;;;1.13;1.13;;;-2.00;99.90;;;;;;6186987;23;20043;-94
2021/01/12 01:23:29;;;;;;;0.60;0.60;;;-1.90;99.90;;;;;;6212124;23;20012;-93
2021/01/12 01:25:55;;;;;;;2.15;1.95;;;-1.90;99.90;;;;;;6186906;23;20005;-95
2021/01/12 01:28:22;;;;;;;0.80;0.80;;;-2.00;99.90;;;;;;6213541;23;20032;-93
2021/01/12 01:30:49;;;;;;;6.97;2.17;;;-2.10;99.90;;;;;;6184118;23;20064;-92
2021/01/12 01:33:16;;;;;;;2.08;1.23;;;-2.30;99.90;;;;;;6183769;23;20513;-91
2021/01/12 01:35:43;;;;;;;1.17;1.17;;;-2.30;99.90;;;;;;6184045;23;20004;-92
2021/01/12 01:38:08;;;;;;;;;;;-2.20;99.90;;;;;;6212704;23;20012;-92
2021/01/12 01:40:34;;;;;;;0.50;0.50;;;-2.20;99.90;;;;;;6182013;23;19907;-92
2021/01/12 01:43:00;;;;;;;0.40;0.40;;;-2.10;99.90;;;;;;6183943;23;20005;-93
2021/01/12 01:45:26;;;;;;;0.17;0.17;;;-2.00;99.90;;;;;;6208986;23;20072;-92
2021/01/12 01:47:52;;;;;;;1.27;1.17;;;-1.90;99.90;;;;;;6177946;23;20021;-92
2021/01/12 01:50:22;;;;;;;1.58;0.82;;;-2.00;99.90;;;;;;6178602;23;20354;-92
2021/01/12 01:52:53;;;;;;;0.40;0.40;;;-2.10;99.90;;;;;;6184182;23;20009;-93
2021/01/12 01:55:20;;;;;;;0.77;0.77;;;-2.00;99.90;;;;;;6184192;23;20043;-93
2021/01/12 01:57:46;;;;;;;0.73;0.73;;;-1.90;99.90;;;;;;6212827;23;20007;-93
2021/01/12 02:00:16;;;;;;;0.60;0.60;;;-1.80;99.90;;;;;;6186181;23;20015;-94
2021/01/12 02:03:09;;;;;;;1.50;1.40;;;-1.80;99.90;;;;;;6187432;23;20457;-93
2021/01/12 02:05:47;;;;;;;1.40;1.35;;;-1.80;99.90;;;;;;6210038;23;20080;-92
2021/01/12 02:08:22;;;;;;;0.45;0.30;;;-1.80;99.90;;;;;;6210236;23;20434;-93
2021/01/12 02:10:50;;;;;;;0.30;0.30;;;-1.80;99.90;;;;;;6210242;23;20094;-93
2021/01/12 02:13:22;;;;;;;1.35;1.02;;;-1.90;99.90;;;;;;6183686;23;20005;-92
2021/01/12 02:15:48;;;;;;;1.65;1.48;;;-1.90;99.90;;;;;;6208315;23;20426;-91
2021/01/12 02:18:14;;;;;;;2.50;1.97;;;-1.80;99.90;;;;;;6210461;23;20107;-93
2021/01/12 02:20:42;;;;;;;1.83;1.73;;;-1.80;99.90;;;;;;6184003;23;20005;-93
2021/01/12 02:23:22;;;;;;;3.75;2.03;;;-1.80;99.90;;;;;;6185504;23;20009;-93
2021/01/12 02:25:52;;;;;;;0.28;0.28;;;-1.90;99.90;;;;;;6210544;23;20000;-92
2021/01/12 02:28:18;;;;;;;4.60;1.45;;;-1.80;99.90;;;;;;6211673;23;20001;-93
2021/01/12 02:30:45;;;;;;;0.90;0.73;;;-1.90;99.90;;;;;;6186477;23;20013;-93
2021/01/12 02:33:11;;;;;;;1.80;1.70;;;-2.10;99.90;;;;;;6186658;23;20013;-93
2021/01/12 02:35:43;;;;;;;0.73;0.63;;;-2.00;99.90;;;;;;6213225;23;20011;-93
2021/01/12 02:38:09;;;;;;;0.60;0.60;;;-1.90;99.90;;;;;;6187148;23;20013;-93
2021/01/12 02:40:35;;;;;;;1.30;1.30;;;-1.80;99.90;;;;;;6188363;23;20015;-93
2021/01/12 02:43:01;;;;;;;0.68;0.68;;;-1.70;99.90;;;;;;6215197;23;19996;-94
2021/01/12 02:45:27;;;;;;;0.40;0.40;;;-1.70;99.90;;;;;;6188744;23;20011;-94
2021/01/12 02:47:53;;;;;;;0.20;0.20;;;-1.90;99.90;;;;;;6189705;23;20066;-94
2021/01/12 02:50:19;;;;;;;2.35;2.17;;;-1.80;99.90;;;;;;6215613;23;20004;-94
2021/01/12 02:52:45;;;;;;;0.52;0.52;;;-2.00;99.90;;;;;;6189161;23;20005;-94
2021/01/12 02:55:13;;;;;;;1.25;1.25;;;-2.50;99.90;;;;;;6189854;23;20008;-94
2021/01/12 02:57:39;;;;;;;1.75;1.65;;;-2.70;99.90;;;;;;6190062;23;20005;-94
2021/01/12 03:00:14;;;;;;;1.15;1.00;;;-2.50;99.90;;;;;;6189673;23;20008;-94
2021/01/12 03:02:40;;;;;;;1.33;1.30;;;-2.50;99.90;;;;;;6189217;23;20035;-94
2021/01/12 03:05:08;;;;;;;0.80;0.80;;;-2.40;99.90;;;;;;6190392;23;20004;-94
2021/01/12 03:07:34;;;;;;;1.38;1.27;;;-2.50;99.90;;;;;;6191057;23;20004;-95
2021/01/12 03:10:00;;;;;;;0.93;0.93;;;-2.50;99.90;;;;;;6190704;23;20009;-95
2021/01/12 03:12:26;;;;;;;2.17;2.08;;;-2.50;99.90;;;;;;6187734;23;20036;-92
2021/01/12 03:14:52;;;;;;;0.20;0.20;;;-2.40;99.90;;;;;;6212588;23;20067;-93
2021/01/12 03:17:19;;;;;;;0.47;0.47;;;-2.20;99.90;;;;;;6213770;23;20008;-94
2021/01/12 03:19:45;;;;;;;0.25;0.25;;;-2.00;99.90;;;;;;6191002;23;20260;-95
2021/01/12 03:22:11;;;;;;;0.37;0.37;;;-1.90;99.90;;;;;;6191102;23;20039;-95
2021/01/12 03:24:37;;;;;;;0.60;0.60;;;-2.00;99.90;;;;;;6191057;23;20001;-95
2021/01/12 03:27:04;;;;;;;2.95;2.00;;;-2.00;99.90;;;;;;6185158;23;20024;-92
2021/01/12 03:29:30;;;;;;;1.17;1.17;;;-1.90;99.90;;;;;;6211791;23;20009;-92
2021/01/12 03:31:56;;;;;;;0.73;0.73;;;-1.90;99.90;;;;;;6184577;23;20411;-92
2021/01/12 03:34:22;;;;;;;0.47;0.47;;;-1.80;99.90;;;;;;6183995;23;20405;-91
2021/01/12 03:36:48;;;;;;;0.82;0.82;;;-1.80;99.90;;;;;;6212551;23;20004;-93
2021/01/12 03:39:14;;;;;;;1.38;1.38;;;-1.70;99.90;;;;;;6184804;23;20008;-92
2021/01/12 03:41:40;;;;;;;0.73;0.73;;;-1.70;99.90;;;;;;6183924;23;20092;-92
2021/01/12 03:44:05;;;;;;;0.60;0.60;;;-1.70;99.90;;;;;;6185122;23;20012;-92
2021/01/12 03:46:31;;;;;;;0.20;0.20;;;-1.80;99.90;;;;;;6210965;23;20477;-92
2021/01/12 03:48:57;;;;;;;1.17;1.15;;;-1.80;99.90;;;;;;6183895;23;20107;-92
2021/01/12 03:51:25;;;;;;;1.30;1.30;;;-1.90;99.90;;;;;;6184281;23;20008;-92
2021/01/12 03:53:51;;;;;;;0.30;0.30;;;-1.80;99.90;;;;;;6183996;23;20098;-93
2021/01/12 03:56:18;;;;;;;1.15;1.05;;;-1.90;99.90;;;;;;6211630;23;20008;-94
2021/01/12 03:58:44;;;;;;;2.50;1.53;;;-1.80;99.90;;;;;;6187234;23;20490;-92
2021/01/12 04:01:11;;;;;;;2.23;1.27;;;-1.80;99.90;;;;;;6187739;23;20252;-94
2021/01/12 04:03:41;;;;;;;1.33;1.23;;;-1.70;99.90;;;;;;6188033;23;20012;-94
2021/01/12 04:06:15;;;;;;;0.20;0.20;;;-1.70;99.90;;;;;;6186472;23;20040;-93
2021/01/12 04:08:46;;;;;;;1.00;1.00;;;-1.70;99.90;;;;;;6185385;23;20039;-93
2021/01/12 04:11:18;;;;;;;1.27;1.25;;;-1.60;99.90;;;;;;6185346;23;20008;-93
2021/01/12 04:13:44;;;;;;;1.40;1.30;;;-1.80;99.90;;;;;;6186718;23;20015;-95
2021/01/12 04:16:10;;;;;;;0.60;0.60;;;-1.90;99.90;;;;;;6187161;23;20092;-92
2021/01/12 04:18:36;;;;;;;0.70;0.70;;;-1.90;99.90;;;;;;6183789;23;20004;-91
2021/01/12 04:21:02;;;;;;;1.27;1.20;;;-1.70;99.90;;;;;;6183438;23;20059;-92
2021/01/12 04:23:28;;;;;;;0.38;0.38;;;-1.70;99.90;;;;;;6210065;23;20004;-92
2021/01/12 04:25:54;;;;;;;1.08;1.08;;;-1.70;99.90;;;;;;6184588;23;20005;-94
2021/01/12 04:28:20;;;;;;;0.85;0.85;;;-1.60;99.90;;;;;;6183864;23;20046;-92
2021/01/12 04:30:46;;;;;;;1.58;1.02;;;-1.80;99.90;;;;;;6184344;23;20008;-92
2021/01/12 04:33:12;;;;;;;1.08;1.02;;;-1.80;99.90;;;;;;6183911;23;20082;-90
2021/01/12 04:35:38;;;;;;;0.63;0.63;;;-1.90;99.90;;;;;;6209954;23;20094;-90
2021/01/12 04:38:04;;;;;;;0.80;0.80;;;-1.90;99.90;;;;;;6209616;23;20008;-91
2021/01/12 04:40:30;;;;;;;0.52;0.52;;;-2.00;99.90;;;;;;6209935;23;20005;-90
2021/01/12 04:42:59;;;;;;;0.90;0.90;;;-2.00;99.90;;;;;;6210197;23;20075;-90
2021/01/12 04:45:26;;;;;;;1.60;1.50;;;-2.00;99.90;;;;;;6183845;23;20001;-90
2021/01/12 04:47:52;;;;;;;;;;;-2.00;99.90;;;;;;6183436;23;20405;-90
2021/01/12 04:50:18;;;;;;;0.27;0.27;;;-2.10;99.90;;;;;;6183538;23;19900;-92
2021/01/12 04:52:46;;;;;;;1.70;1.63;;;-2.10;99.90;;;;;;6183667;23;20421;-92
2021/01/12 04:55:12;;;;;;;1.08;1.08;;;-2.10;99.90;;;;;;6184201;23;20008;-92
2021/01/12 04:57:38;;;;;;;2.00;1.85;;;-2.10;99.90;;;;;;6182546;23;20004;-92
2021/01/12 05:00:26;;;;;;;1.20;1.20;;;-2.00;99.90;;;;;;6183681;23;20013;-92
2021/01/12 05:02:55;;;;;;;1.90;0.77;;;-2.00;99.90;;;;;;6210906;23;20000;-92
2021/01/12 05:05:21;;;;;;;0.52;0.52;;;-1.90;99.90;;;;;;6183524;23;20108;-90
2021/01/12 05:07:47;;;;;;;1.00;1.00;;;-1.90;99.90;;;;;;6210189;23;20005;-92
2021/01/12 05:10:13;;;;;;;1.15;0.55;;;-1.90;99.90;;;;;;6209997;23;20403;-92
2021/01/12 05:12:40;;;;;;;0.20;0.20;;;-1.90;99.90;;;;;;6182943;23;20020;-92
2021/01/12 05:15:09;;;;;;;0.70;0.70;;;-1.90;99.90;;;;;;6213131;23;20004;-94
2021/01/12 05:17:37;;;;;;;0.68;0.68;;;-2.00;99.90;;;;;;6186351;23;20016;-91
2021/01/12 05:20:04;;;;;;;2.83;1.77;;;-2.10;99.90;;;;;;6183531;23;20008;-92
2021/01/12 05:22:32;;;;;;;;;;;-2.00;99.90;;;;;;6184471;23;20791;-92
2021/01/12 05:27:44;;;;;;;1.27;1.20;;;-2.10;99.90;;;;;;6210262;23;20031;-92
2021/01/12 05:30:10;;;;;;;0.47;0.47;;;-2.20;99.90;;;;;;6183530;23;20019;-90
2021/01/12 05:32:39;;;;;;;7.88;3.00;;;-2.20;99.90;;;;;;6209816;23;20001;-90
2021/01/12 05:35:07;;;;;;;2.15;1.90;;;-2.20;99.90;;;;;;6182991;23;20465;-90
2021/01/12 05:37:33;;;;;;;4.15;2.70;;;-2.20;99.90;;;;;;6183459;23;20086;-91
2021/01/12 05:40:04;;;;;;;0.73;0.73;;;-2.20;99.90;;;;;;6209511;23;20012;-89
2021/01/12 05:42:31;;;;;;;1.20;1.15;;;-2.10;99.90;;;;;;6183971;23;20028;-90
2021/01/12 05:44:57;;;;;;;0.70;0.70;;;-2.10;99.90;;;;;;6183034;23;20139;-89
2021/01/12 05:47:23;;;;;;;3.95;1.85;;;-2.10;99.90;;;;;;6209422;23;20761;-90
2021/01/12 05:49:53;;;;;;;0.63;0.63;;;-2.10;99.90;;;;;;6182578;23;20096;-90
2021/01/12 05:52:19;;;;;;;0.95;0.95;;;-2.00;99.90;;;;;;6183355;23;20070;-89
2021/01/12 05:55:14;;;;;;;0.20;0.20;;;-2.00;99.90;;;;;;6183085;23;20016;-89
2021/01/12 05:57:47;;;;;;;0.70;0.70;;;-1.90;99.90;;;;;;6204741;23;20012;-88
2021/01/12 06:00:14;;;;;;;0.93;0.85;;;-1.90;99.90;;;;;;6208797;23;20012;-90
2021/01/12 06:02:42;;;;;;;1.02;0.93;;;-2.00;99.90;;;;;;6210279;23;20004;-89
2021/01/12 06:05:08;;;;;;;0.50;0.50;;;-1.90;99.90;;;;;;6184833;23;20079;-89
2021/01/12 06:07:34;;;;;;;0.50;0.50;;;-1.90;99.90;;;;;;6210737;23;20012;-89
2021/01/12 06:10:01;;;;;;;2.72;2.03;;;-1.80;99.90;;;;;;6184092;23;20012;-88
2021/01/12 06:12:29;;;;;;;0.50;0.50;;;-1.80;99.90;;;;;;6212832;23;20037;-91
2021/01/12 06:14:58;;;;;;;0.52;0.52;;;-1.70;99.90;;;;;;6187887;23;20004;-92
2021/01/12 06:17:32;;;;;;;1.70;1.60;;;-1.70;99.90;;;;;;6184846;23;20013;-91
2021/01/12 06:20:04;;;;;;;0.95;0.95;;;-1.60;99.90;;;;;;6212068;23;20076;-91
2021/01/12 06:22:41;;;;;;;7.78;3.05;;;-1.60;99.90;;;;;;6186507;23;20015;-91
2021/01/12 06:25:11;;;;;;;1.58;1.48;;;-1.50;99.90;;;;;;6186372;23;20386;-91
2021/01/12 06:27:37;;;;;;;1.02;0.95;;;-1.40;99.90;;;;;;6187188;23;20001;-92
2021/01/12 06:30:06;;;;;;;0.47;0.47;;;-1.40;99.90;;;;;;6185474;23;20008;-93
2021/01/12 06:32:35;;;;;;;2.28;2.17;;;-1.40;99.90;;;;;;6186767;23;20803;-89
2021/01/12 06:35:05;;;;;;;1.60;1.48;;;-1.40;99.90;;;;;;6185874;23;20016;-92
2021/01/12 06:37:41;;;;;;;1.25;1.25;;;-1.40;99.90;;;;;;6183946;23;20009;-90
2021/01/12 06:40:09;;;;;;;0.38;0.38;;;-1.50;99.90;;;;;;6185034;23;20008;-92
2021/01/12 06:42:36;;;;;;;2.80;2.60;;;-1.50;99.90;;;;;;6210178;23;20004;-92
2021/01/12 06:45:04;;;;;;;2.05;1.95;;;-1.70;99.90;;;;;;6212360;23;20024;-90
2021/01/12 06:47:32;;;;;;;3.45;1.95;;;-1.80;99.90;;;;;;6212018;23;20016;-90
2021/01/12 06:50:11;;;;;;;3.53;2.70;;;-1.80;99.90;;;;;;6186003;23;20005;-93
2021/01/12 06:52:47;;;;;;;1.15;1.15;;;-1.80;99.90;;;;;;6187481;23;20015;-93
2021/01/12 06:55:15;;;;;;;2.20;1.55;;;-1.70;99.90;;;;;;6186484;23;20009;-92
2021/01/12 06:57:46;;;;;;;1.60;1.55;;;-1.70;99.90;;;;;;6186758;23;20004;-93
2021/01/12 07:00:13;;;;;;;1.58;1.48;;;-1.60;99.90;;;;;;6185866;23;20008;-92
2021/01/12 07:02:39;;;;;;;0.90;0.90;;;-1.60;99.90;;;;;;6187098;23;20005;-90
2021/01/12 07:05:05;;;;;;;1.30;1.27;;;-1.50;99.90;;;;;;6212585;23;20001;-91
2021/01/12 07:07:35;;;;;;;0.40;0.40;;;-1.40;99.90;;;;;;6212247;23;20067;-91
2021/01/12 07:10:03;;;;;;;1.73;1.63;;;-1.30;99.90;;;;;;6213653;23;20001;-93
2021/01/12 07:12:30;;;;;;;1.38;1.10;;;-1.30;99.90;;;;;;6186741;23;20510;-92
2021/01/12 07:14:57;;;;;;;;;;;-1.30;99.90;;;;;;6188912;23;20015;-93
2021/01/12 07:17:41;;;;;;;3.13;1.45;;;-1.30;99.90;;;;;;6189689;23;19906;-94
2021/01/12 07:20:14;;;;;;;1.00;0.75;;;-1.30;99.90;;;;;;6186183;23;20043;-90
2021/01/12 07:23:08;;;;;;;0.63;0.63;;;-1.30;99.90;;;;;;6185458;23;20001;-93
2021/01/12 07:25:42;;;;;;;1.85;1.75;;;-1.20;99.90;;;;;;6125303;23;20012;-90
2021/01/12 07:28:09;;;;;;;0.75;0.75;;;-1.30;99.90;;;;;;6186112;23;20009;-91
2021/01/12 07:30:39;;;;;;;0.90;0.73;;;-1.40;99.90;;;;;;6186182;23;20009;-91
2021/01/12 07:33:18;;;;;;;1.05;1.05;;;-1.50;99.90;;;;;;6212231;23;20011;-91
2021/01/12 07:35:47;;;;;;;0.52;0.52;;;-1.50;99.90;;;;;;6184635;23;20012;-91
2021/01/12 07:38:15;;;;;;;0.75;0.75;;;-1.50;99.90;;;;;;6211612;23;20001;-91
2021/01/12 07:40:41;;;;;;;4.75;1.45;;;-1.50;99.90;;;;;;6184965;23;20011;-90
2021/01/12 07:43:06;;;;;;;21.02;2.00;;;-1.40;99.90;;;;;;6211443;23;20000;-89
2021/01/12 07:45:34;;;;;;;0.88;0.88;;;-1.40;99.90;;;;;;6210236;23;20422;-91
2021/01/12 07:48:02;;;;;;;2.72;2.20;;;-1.40;99.90;;;;;;6183921;23;20021;-90
2021/01/12 07:50:30;;;;;;;1.80;1.70;;;-1.40;99.90;;;;;;6210795;23;20001;-90
2021/01/12 07:53:06;;;;;;;1.50;1.45;;;-1.40;99.90;;;;;;6210783;23;20000;-90
2021/01/12 07:55:53;;;;;;;0.52;0.52;;;-1.40;99.90;;;;;;6184493;23;20036;-91
2021/01/12 07:58:23;;;;;;;1.63;1.55;;;-1.20;99.90;;;;;;6211034;23;20014;-89
2021/01/12 08:00:58;;;;;;;0.40;0.40;;;-1.10;99.90;;;;;;6206629;23;20529;-89
2021/01/12 08:03:26;;;;;;;0.57;0.57;;;-1.20;99.90;;;;;;6183950;23;20027;-90
2021/01/12 08:05:59;;;;;;;1.00;0.52;;;-1.20;99.90;;;;;;6183700;23;20012;-89
2021/01/12 08:08:26;;;;;;;0.65;0.65;;;-1.10;99.90;;;;;;6185759;23;20454;-91
2021/01/12 08:10:55;;;;;;;1.73;1.55;;;-1.00;99.90;;;;;;6185537;23;20012;-93
2021/01/12 08:13:22;;;;;;;1.23;1.23;;;-1.00;99.90;;;;;;6213491;23;20000;-93
2021/01/12 08:15:57;;;;;;;;;;;-1.00;99.90;;;;;;6214361;23;20079;-93
2021/01/12 08:18:23;;;;;;;1.45;1.38;;;-0.80;99.90;;;;;;6214026;23;19899;-93
2021/01/12 08:20:56;;;;;;;0.50;0.50;;;-0.90;99.90;;;;;;6187848;23;20009;-94
2021/01/12 08:23:22;;;;;;;0.43;0.43;;;-0.90;99.90;;;;;;6187212;23;20017;-93
2021/01/12 08:25:47;;;;;;;0.40;0.40;;;-0.90;99.90;;;;;;6214508;23;20003;-93
2021/01/12 08:28:14;;;;;;;1.05;0.77;;;-0.80;99.90;;;;;;6187080;23;20000;-93
2021/01/12 08:30:41;;;;;;;0.93;0.93;;;-0.70;99.90;;;;;;6186889;23;20012;-94
2021/01/12 08:33:23;;;;;;;1.05;0.95;;;-0.70;99.90;;;;;;6187523;23;20011;-94
2021/01/12 08:35:57;;;;;;;1.02;1.02;;;-0.70;99.90;;;;;;6187432;23;20013;-93
2021/01/12 08:38:27;;;;;;;4.53;1.23;;;-0.70;99.90;;;;;;6187483;23;20015;-93
2021/01/12 08:40:54;;;;;;;3.35;1.75;;;-0.80;99.90;;;;;;6187699;23;20015;-92
2021/01/12 08:43:26;;;;;;;0.95;0.95;;;-0.90;99.90;;;;;;6186925;23;20009;-93
2021/01/12 08:45:57;;;;;;;0.20;0.20;;;-0.90;99.90;;;;;;6186616;23;20096;-93
2021/01/12 08:48:23;;;;;;;0.95;0.95;;;-1.10;99.90;;;;;;6186108;23;20021;-93
2021/01/12 08:50:48;;;;;;;6.22;1.42;;;-1.10;99.90;;;;;;6186814;23;20117;-92
2021/01/12 08:53:18;;;;;;;6.43;1.65;;;-1.00;99.90;;;;;;6213173;23;20012;-92
2021/01/12 08:55:45;;;;;;;0.82;0.82;;;-1.10;99.90;;;;;;6212855;23;20009;-92
2021/01/12 08:58:11;;;;;;;1.05;0.95;;;-0.90;99.90;;;;;;6211967;23;20001;-92
2021/01/12 09:00:39;;;;;;;0.30;0.30;;;-1.00;99.90;;;;;;6185398;23;20008;-93
2021/01/12 09:03:06;;;;;;;2.70;1.80;;;-0.80;99.90;;;;;;6211967;23;20027;-92
2021/01/12 09:05:39;;;;;;;0.50;0.50;;;-0.60;99.90;;;;;;6213576;23;20015;-91
2021/01/12 09:08:12;;;;;;;1.10;1.10;;;-0.50;99.90;;;;;;6213517;23;20055;-92
2021/01/12 09:10:39;;;;;;;1.08;1.08;;;-0.20;99.90;;;;;;6213603;23;20004;-92
2021/01/12 09:13:07;;;;;;;0.80;0.80;;;-0.10;99.90;;;;;;6211561;23;20004;-90
2021/01/12 09:15:35;;;;;;;1.17;1.08;;;-0.10;99.90;;;;;;6184243;23;20009;-92
2021/01/12 09:18:18;;;;;;;2.28;2.13;;;-0.30;99.90;;;;;;6184796;23;20646;-92
2021/01/12 09:20:51;;;;;;;0.68;0.68;;;-0.40;99.90;;;;;;6211912;23;20004;-91
2021/01/12 09:23:17;;;;;;;4.10;1.65;;;-0.30;99.90;;;;;;6185209;23;20008;-91
2021/01/12 09:25:51;;;;;;;9.02;2.22;;;-0.50;99.90;;;;;;6211023;23;20492;-91
2021/01/12 09:28:23;;;;;;;2.22;2.13;;;-0.70;99.90;;;;;;6210804;23;20000;-91
2021/01/12 09:30:49;;;;;;;6.43;2.10;;;-0.80;99.90;;;;;;6210699;23;20009;-91
2021/01/12 09:33:23;;;;;;;0.55;0.55;;;-0.60;99.90;;;;;;6210612;23;20461;-91
2021/01/12 09:36:04;;;;;;;2.50;0.82;;;-0.60;99.90;;;;;;6210324;23;20060;-91
2021/01/12 09:38:46;;;;;;;0.80;0.80;;;-0.60;99.90;;;;;;6210400;23;20446;-91
2021/01/12 09:41:13;;;;;;;1.70;1.27;;;-0.50;99.90;;;;;;6209943;23;20009;-91
2021/01/12 09:43:40;;;;;;;1.23;1.15;;;-0.30;99.90;;;;;;6183748;23;20466;-91
2021/01/12 09:46:06;;;;;;;1.10;1.10;;;-0.30;99.90;;;;;;6183815;23;20001;-91
2021/01/12 09:48:32;;;;;;;3.10;2.85;;;-0.40;99.90;;;;;;6211100;23;20016;-91
2021/01/12 09:50:58;;;;;;;1.63;0.82;;;-0.50;99.90;;;;;;6211111;23;20015;-91
2021/01/12 09:53:24;;;;;;;0.30;0.30;;;-0.40;99.90;;;;;;6210797;23;20028;-91
2021/01/12 09:55:50;;;;;;;2.03;1.33;;;-0.60;99.90;;;;;;6185133;23;20359;-91
2021/01/12 09:58:16;;;;;;;1.80;1.67;;;-0.60;99.90;;;;;;6211134;23;20000;-91
2021/01/12 10:00:42;;;;;;;0.50;0.50;;;-0.40;99.90;;;;;;6183319;23;20005;-90
2021/01/12 10:03:08;;;;;;;0.80;0.80;;;-0.50;99.90;;;;;;6211080;23;20000;-91
2021/01/12 10:05:37;;;;;;;0.65;0.65;;;-0.40;99.90;;;;;;6211260;23;20468;-90
2021/01/12 10:08:04;;;;;;;1.55;1.30;;;-0.50;99.90;;;;;;6210322;23;20446;-90
2021/01/12 10:10:30;;;;;;;0.28;0.28;;;-0.30;99.90;;;;;;6182401;23;20848;-90
2021/01/12 10:12:56;;;;;;;0.50;0.50;;;-0.30;99.90;;;;;;6210106;23;20005;-89
2021/01/12 10:15:21;;;;;;;0.73;0.73;;;-0.20;99.90;;;;;;6183038;23;20046;-90
2021/01/12 10:17:47;;;;;;;1.15;1.15;;;-0.30;99.90;;;;;;6209994;23;20392;-90
2021/01/12 10:20:13;;;;;;;0.75;0.75;;;-0.30;99.90;;;;;;6209548;23;20095;-90
2021/01/12 10:22:39;;;;;;;1.95;1.83;;;-0.10;99.90;;;;;;6182708;23;20096;-90
2021/01/12 10:25:05;;;;;;;1.95;1.85;;;-0.30;99.90;;;;;;6209660;23;20024;-90
2021/01/12 10:27:37;;;;;;;1.27;1.23;;;-0.20;99.90;;;;;;6209688;23;20005;-89
2021/01/12 10:30:05;;;;;;;0.30;0.30;;;0.00;99.90;;;;;;6209617;23;20442;-91
2021/01/12 10:32:32;;;;;;;0.95;0.95;;;-0.10;99.90;;;;;;6210608;23;20000;-91
2021/01/12 10:34:58;;;;;;;5.32;0.80;;;0.20;99.90;;;;;;6185068;23;20063;-91
2021/01/12 10:37:24;;;;;;;0.43;0.43;;;0.10;99.90;;;;;;6211369;23;20008;-91
2021/01/12 10:39:50;;;;;;;0.22;0.22;;;0.20;99.90;;;;;;6183838;23;20067;-91
2021/01/12 10:42:16;;;;;;;0.25;0.25;;;0.10;99.90;;;;;;6183790;23;20004;-91
2021/01/12 10:44:41;;;;;;;1.13;1.05;;;0.30;99.90;;;;;;6184991;23;20012;-91
2021/01/12 10:47:07;;;;;;;1.83;1.08;;;0.20;99.90;;;;;;6183712;23;20029;-91
2021/01/12 10:49:33;;;;;;;3.10;2.78;;;0.10;99.90;;;;;;6210563;23;20004;-91
2021/01/12 10:52:04;;;;;;;1.42;1.30;;;0.00;99.90;;;;;;6186777;23;20091;-91
2021/01/12 10:54:30;;;;;;;1.00;1.00;;;-0.10;99.90;;;;;;6178089;23;20005;-91
2021/01/12 10:56:56;;;;;;;0.20;0.20;;;0.00;99.90;;;;;;6213577;23;20024;-91
2021/01/12 10:59:22;;;;;;;0.88;0.88;;;0.00;20.10;;;;;;6187150;23;20008;-91
2021/01/12 11:01:56;;;;;;;0.75;0.75;;;0.00;18.50;;;;;;6214354;23;20661;-91
2021/01/12 11:04:22;;;;;;;1.55;1.45;;;0.00;66.00;;;;;;6213235;23;20008;-91
2021/01/12 11:06:51;;;;;;;0.88;0.88;;;0.10;99.90;;;;;;6213755;23;20509;-91
2021/01/12 11:09:20;;;;;;;0.20;0.20;;;0.00;1.00;;;;;;6186778;23;20000;-91
2021/01/12 11:11:48;;;;;;;2.67;2.45;;;0.10;99.90;;;;;;6214796;23;20000;-91
2021/01/12 11:14:18;;;;;;;4.32;2.58;;;0.10;99.90;;;;;;6186946;23;20091;-92
2021/01/12 11:16:45;;;;;;;0.77;0.77;;;0.10;99.90;;;;;;6188215;23;20005;-92
2021/01/12 11:19:12;;;;;;;0.30;0.30;;;0.30;99.90;;;;;;6188635;23;20005;-92
2021/01/12 11:21:45;;;;;;;0.88;0.82;;;0.50;56.80;;;;;;6188459;23;20076;-93
2021/01/12 11:24:15;;;;;;;1.02;0.93;;;0.40;32.40;;;;;;6190115;23;20001;-92
2021/01/12 11:26:43;;;;;;;1.30;1.30;;;0.20;1.00;;;;;;6190261;23;20087;-93
2021/01/12 11:29:10;;;;;;;0.30;0.30;;;0.20;1.00;;;;;;6189329;23;20040;-93
2021/01/12 11:31:36;;;;;;;3.35;3.05;;;0.40;99.90;;;;;;6189448;23;20013;-92
2021/01/12 11:34:02;;;;;;;1.55;1.33;;;0.60;99.90;;;;;;6189694;23;20087;-93
2021/01/12 11:36:39;;;;;;;0.95;0.93;;;0.60;1.00;;;;;;6189585;23;20009;-93
2021/01/12 11:39:08;;;;;;;2.83;1.10;;;0.30;99.90;;;;;;6189049;23;20015;-92
2021/01/12 11:41:44;;;;;;;0.93;0.90;;;0.40;99.90;;;;;;6188162;23;20004;-92
2021/01/12 11:44:10;;;;;;;0.90;0.90;;;0.20;1.00;;;;;;6187041;23;20012;-91
2021/01/12 11:46:36;;;;;;;3.03;2.78;;;0.30;99.90;;;;;;6186038;23;20000;-92
2021/01/12 11:49:02;;;;;;;0.20;0.20;;;0.40;99.90;;;;;;6184718;23;20020;-92
2021/01/12 11:51:45;;;;;;;5.55;1.80;;;0.30;99.90;;;;;;6185045;23;20019;-91
2021/01/12 11:54:11;;;;;;;2.55;1.58;;;0.30;99.90;;;;;;6184640;23;20473;-91
2021/01/12 11:56:38;;;;;;;2.22;1.70;;;0.30;99.90;;;;;;6184168;23;20435;-90
2021/01/12 11:59:05;;;;;;;1.92;1.77;;;0.40;99.90;;;;;;6210152;23;20013;-91
2021/01/12 12:01:42;;;;;;;0.75;0.75;;;0.60;99.90;;;;;;6210237;23;20032;-91
2021/01/12 12:04:08;;;;;;;0.47;0.47;;;0.60;99.90;;;;;;6183637;23;20005;-90
2021/01/12 12:06:34;;;;;;;0.47;0.47;;;0.60;99.90;;;;;;6183572;23;20009;-91
2021/01/12 12:09:00;;;;;;;0.52;0.52;;;0.70;99.90;;;;;;6210757;23;20000;-91
2021/01/12 12:11:26;;;;;;;8.30;3.40;;;0.70;99.90;;;;;;6184332;23;20011;-91
2021/01/12 12:13:52;;;;;;;2.88;1.65;;;0.50;99.90;;;;;;6210325;23;20008;-91
2021/01/12 12:16:19;;;;;;;0.50;0.50;;;0.40;99.90;;;;;;6210201;23;20008;-91
2021/01/12 12:18:46;;;;;;;1.35;1.27;;;0.40;99.90;;;;;;6184052;23;20016;-92
2021/01/12 12:21:18;;;;;;;0.30;0.30;;;0.60;99.90;;;;;;6183890;23;20009;-91
2021/01/12 12:23:44;;;;;;;1.92;1.27;;;0.70;99.90;;;;;;6182983;23;20009;-91
2021/01/12 12:26:14;;;;;;;0.50;0.50;;;0.70;99.90;;;;;;6183942;23;20087;-91
2021/01/12 12:28:40;;;;;;;1.77;1.67;;;1.00;99.90;;;;;;6182940;23;20087;-90
2021/01/12 12:31:07;;;;;;;0.52;0.50;;;0.90;99.90;;;;;;6209206;23;20008;-90
2021/01/12 12:33:33;;;;;;;;;;;0.80;99.90;;;;;;6210662;23;20015;-90
2021/01/12 12:36:08;;;;;;;0.70;0.70;;;0.90;99.90;;;;;;6209944;23;19986;-90
2021/01/12 12:38:36;;;;;;;2.03;1.83;;;1.00;99.90;;;;;;6183583;23;20051;-90
2021/01/12 12:41:09;;;;;;;1.52;1.20;;;1.00;99.90;;;;;;6209888;23;20008;-90
2021/01/12 12:43:35;;;;;;;0.93;0.93;;;0.90;99.90;;;;;;6210200;23;20072;-89
2021/01/12 12:46:01;;;;;;;1.80;1.70;;;0.90;99.90;;;;;;6209236;23;20074;-90
2021/01/12 12:48:26;;;;;;;0.93;0.93;;;0.80;99.90;;;;;;6210076;23;20012;-90
2021/01/12 12:50:54;;;;;;;1.83;1.73;;;0.80;99.90;;;;;;6210043;23;20863;-90
2021/01/12 12:53:20;;;;;;;;;;;0.70;99.90;;;;;;6211100;23;20004;-91
2021/01/12 12:55:45;;;;;;;3.10;0.75;;;0.80;99.90;;;;;;6210249;23;19906;-89
2021/01/12 12:58:11;;;;;;;1.15;1.15;;;0.70;99.90;;;;;;6183532;23;20398;-90